Time;durP1;ratioP1;P1;durP2;ratioP2;P2;SDS_P1;SDS_P2;PMS_P1;PMS_P2;Temp;Humidity;BMP_temperature;BMP_pressure;BME280_temperature;BME280_humidity;BME280_pressure;Samples;Min_cycle;Max_cycle;Signal;HPM_P1;HPM_P2
2022/07/27 00:00:45;;;;;;;1.75;1.40;;;;;;;18.99;55.52;100906.59;5093797;28;20020;-28
2022/07/27 00:03:11;;;;;;;1.33;1.23;;;;;;;18.98;55.96;100899.53;5112141;28;20028;-28
2022/07/27 00:05:38;;;;;;;1.27;1.02;;;;;;;18.95;55.84;100908.56;5111562;28;20521;-28
2022/07/27 00:08:05;;;;;;;1.70;1.27;;;;;;;18.94;56.04;100900.59;5111763;28;20027;-28
2022/07/27 00:10:30;;;;;;;1.90;1.20;;;;;;;18.91;55.76;100898.88;5111907;28;20030;-28
2022/07/27 00:12:55;;;;;;;4.18;1.38;;;;;;;18.89;55.95;100907.91;5093318;28;20016;-28
2022/07/27 00:15:21;;;;;;;5.65;1.83;;;;;;;18.90;55.71;100912.34;5093291;28;20019;-28
2022/07/27 00:17:46;;;;;;;3.25;1.27;;;;;;;18.88;55.68;100923.09;5111919;28;20082;-28
2022/07/27 00:20:11;;;;;;;2.13;1.10;;;;;;;18.85;55.75;100913.38;5111865;28;20039;-28
2022/07/27 00:22:37;;;;;;;1.05;0.95;;;;;;;18.82;55.78;100912.63;5093284;28;20427;-27
2022/07/27 00:25:02;;;;;;;3.10;1.58;;;;;;;18.79;55.89;100916.31;5111603;28;20031;-28
2022/07/27 00:27:27;;;;;;;1.15;1.00;;;;;;;18.77;55.84;100907.47;5112870;28;20027;-28
2022/07/27 00:29:53;;;;;;;2.22;1.20;;;;;;;18.76;55.81;100921.75;5097165;28;20038;-28
2022/07/27 00:32:18;;;;;;;2.65;1.20;;;;;;;18.72;55.80;100926.38;5113468;28;20035;-28
2022/07/27 00:34:44;;;;;;;2.75;1.30;;;;;;;18.70;55.97;100922.88;5100618;28;20032;-28
2022/07/27 00:37:09;;;;;;;1.67;1.23;;;;;;;18.68;56.01;100935.41;5104832;28;20024;-28
2022/07/27 00:39:34;;;;;;;2.20;1.20;;;;;;;18.66;55.73;100936.41;5097044;28;20035;-28
2022/07/27 00:42:00;;;;;;;3.20;1.80;;;;;;;18.64;55.62;100931.13;5115381;28;20032;-28
2022/07/27 00:44:26;;;;;;;1.90;1.27;;;;;;;18.62;55.81;100934.78;5115458;28;20030;-28
2022/07/27 00:46:52;;;;;;;2.83;1.55;;;;;;;18.59;55.64;100927.78;5115206;28;20394;-28
2022/07/27 00:49:18;;;;;;;5.13;1.58;;;;;;;18.56;55.61;100947.47;5115080;28;20475;-28
2022/07/27 00:51:43;;;;;;;4.38;1.98;;;;;;;18.55;55.72;100944.84;5114885;28;20058;-28
2022/07/27 00:54:09;;;;;;;4.05;1.20;;;;;;;18.52;55.71;100943.16;5114873;28;20020;-28
2022/07/27 00:56:34;;;;;;;3.42;1.60;;;;;;;18.54;55.42;100933.28;5096637;28;20024;-28
2022/07/27 00:58:59;;;;;;;3.58;1.48;;;;;;;18.52;55.46;100944.97;5097107;28;20020;-28
2022/07/27 01:01:25;;;;;;;4.38;1.70;;;;;;;18.48;55.54;100935.31;5097029;28;20019;-28
2022/07/27 01:03:50;;;;;;;2.50;1.27;;;;;;;18.47;55.24;100950.47;5114710;28;20035;-28
2022/07/27 01:06:16;;;;;;;2.90;1.45;;;;;;;18.43;55.65;100947.06;5114700;28;20024;-28
2022/07/27 01:08:42;;;;;;;2.58;1.63;;;;;;;18.40;55.48;100946.28;5096837;28;20027;-28
2022/07/27 01:11:08;;;;;;;4.72;1.63;;;;;;;18.37;55.40;100952.63;5096998;28;20037;-28
2022/07/27 01:13:34;;;;;;;1.88;1.40;;;;;;;18.34;55.32;100958.94;5096219;28;20037;-28
2022/07/27 01:15:59;;;;;;;3.72;1.50;;;;;;;18.31;55.35;100951.03;5114819;28;20069;-28
2022/07/27 01:18:30;;;;;;;1.92;1.27;;;;;;;18.30;55.31;100943.09;5114103;28;20032;-28
2022/07/27 01:20:56;;;;;;;4.00;1.52;;;;;;;18.27;55.43;100944.09;5114871;28;20467;-28
2022/07/27 01:23:25;;;;;;;2.20;1.80;;;;;;;18.24;55.50;100949.53;5114505;28;20049;-28
2022/07/27 01:25:50;;;;;;;3.28;1.20;;;;;;;18.19;55.51;100949.72;5096623;28;20031;-28
2022/07/27 01:28:15;;;;;;;3.88;1.52;;;;;;;18.20;55.43;100955.91;5095189;28;20386;-28
2022/07/27 01:30:41;;;;;;;2.90;1.55;;;;;;;18.17;55.36;100943.56;5094121;28;20024;-28
2022/07/27 01:33:07;;;;;;;2.40;1.30;;;;;;;18.12;55.54;100948.19;5093888;28;20020;-28
2022/07/27 01:35:34;;;;;;;3.92;1.55;;;;;;;18.08;55.53;100947.38;5094105;28;20027;-28
2022/07/27 01:37:59;;;;;;;3.67;1.40;;;;;;;18.07;55.23;100944.78;5110511;28;20360;-28
2022/07/27 01:40:25;;;;;;;2.55;1.38;;;;;;;18.07;55.19;100947.44;5096099;28;20028;-28
2022/07/27 01:42:51;;;;;;;1.95;1.40;;;;;;;18.03;55.42;100949.38;5114027;28;20052;-28
2022/07/27 01:45:16;;;;;;;2.45;1.10;;;;;;;17.99;55.55;100953.06;5095780;28;20029;-28
2022/07/27 01:47:41;;;;;;;3.65;1.38;;;;;;;17.97;55.56;100954.06;5113987;28;20047;-28
2022/07/27 01:50:07;;;;;;;7.00;1.90;;;;;;;17.94;55.36;100949.72;5114271;28;20031;-28
2022/07/27 01:52:33;;;;;;;3.10;1.55;;;;;;;17.93;55.43;100962.16;5113946;28;20398;-28
2022/07/27 01:54:58;;;;;;;4.68;1.70;;;;;;;17.91;55.15;100960.47;5113890;28;20103;-28
2022/07/27 01:57:24;;;;;;;2.05;1.17;;;;;;;17.87;55.71;100953.53;5113842;28;20076;-28
2022/07/27 01:59:49;;;;;;;1.50;1.40;;;;;;;17.83;55.53;100953.63;5113789;28;20035;-28
2022/07/27 02:02:15;;;;;;;1.65;1.13;;;;;;;17.81;55.51;100955.47;5113804;28;20024;-28
2022/07/27 02:04:43;;;;;;;1.55;1.40;;;;;;;17.80;55.38;100952.84;5113795;28;20081;-28
2022/07/27 02:07:08;;;;;;;3.03;1.25;;;;;;;17.77;55.66;100953.81;5113540;28;20028;-28
2022/07/27 02:09:34;;;;;;;3.65;1.27;;;;;;;17.76;55.33;100952.09;5113738;28;20020;-28
2022/07/27 02:14:43;;;;;;;4.57;1.75;;;;;;;17.72;55.35;100949.56;5113387;28;20031;-28
2022/07/27 02:17:08;;;;;;;2.22;0.98;;;;;;;17.68;55.38;100948.81;5113276;28;20425;-28
2022/07/27 02:19:34;;;;;;;1.80;1.20;;;;;;;17.67;55.58;100947.06;5113447;28;20475;-28
2022/07/27 02:21:59;;;;;;;4.40;1.45;;;;;;;17.62;55.62;100946.34;5095178;28;20108;-28
2022/07/27 02:24:24;;;;;;;2.08;1.33;;;;;;;17.60;55.66;100946.41;5113509;28;20027;-28
2022/07/27 02:26:50;;;;;;;3.42;1.55;;;;;;;17.59;55.45;100943.78;5113259;28;20475;-28
2022/07/27 02:29:15;;;;;;;2.72;1.38;;;;;;;17.57;55.47;100942.06;5113068;28;20398;-28
2022/07/27 02:31:40;;;;;;;4.28;1.52;;;;;;;17.57;55.58;100941.19;5113371;28;20024;-28
2022/07/27 02:34:06;;;;;;;3.00;1.38;;;;;;;17.54;55.21;100942.16;5112985;28;20371;-28
2022/07/27 02:36:31;;;;;;;1.67;0.98;;;;;;;17.52;55.54;100941.34;5113156;28;20394;-28
2022/07/27 02:38:56;;;;;;;1.10;0.95;;;;;;;17.51;55.54;100942.25;5113059;28;20046;-28
2022/07/27 02:41:22;;;;;;;2.15;1.40;;;;;;;17.51;55.37;100950.25;5113374;28;20077;-28
2022/07/27 02:43:47;;;;;;;2.70;1.23;;;;;;;17.48;55.65;100947.72;5094051;28;20054;-28
2022/07/27 02:46:12;;;;;;;3.92;1.30;;;;;;;17.45;55.66;100955.81;5113083;28;20058;-28
2022/07/27 02:48:38;;;;;;;2.70;1.50;;;;;;;17.46;55.45;100962.88;5112917;28;20090;-28
2022/07/27 02:51:03;;;;;;;2.70;1.45;;;;;;;17.42;55.55;100958.56;5093912;28;20026;-28
2022/07/27 02:53:29;;;;;;;3.17;1.35;;;;;;;17.43;55.55;100954.97;5112922;28;20024;-28
2022/07/27 02:55:55;;;;;;;2.00;1.27;;;;;;;17.42;55.56;100959.47;5113354;28;20596;-28
2022/07/27 02:58:20;;;;;;;1.88;1.20;;;;;;;17.40;55.19;100958.63;5093940;28;20031;-28
2022/07/27 03:00:46;;;;;;;2.30;1.30;;;;;;;17.38;55.58;100951.59;5094445;28;20118;-27
2022/07/27 03:03:12;;;;;;;3.25;1.30;;;;;;;17.38;55.64;100948.94;5112456;28;20027;-28
2022/07/27 03:05:38;;;;;;;2.47;1.63;;;;;;;17.37;55.50;100950.72;5112579;28;20027;-28
2022/07/27 03:08:03;;;;;;;2.53;1.27;;;;;;;17.36;55.72;100953.44;5112729;28;20374;-28
2022/07/27 03:10:29;;;;;;;2.60;1.55;;;;;;;17.35;55.57;100951.69;5094479;28;20107;-28
2022/07/27 03:12:54;;;;;;;1.50;1.40;;;;;;;17.30;55.32;100950.06;5112045;28;20463;-28
2022/07/27 03:15:19;;;;;;;2.92;1.42;;;;;;;17.31;55.42;100958.94;5112264;28;20035;-28
2022/07/27 03:17:45;;;;;;;2.00;1.30;;;;;;;17.29;55.69;100959.00;5112211;28;20536;-28
2022/07/27 03:20:10;;;;;;;3.95;1.65;;;;;;;17.27;55.49;100960.81;5112317;28;20479;-28
2022/07/27 03:22:36;;;;;;;2.15;1.40;;;;;;;17.26;55.56;100952.88;5093733;28;20031;-28
2022/07/27 03:25:01;;;;;;;1.60;1.30;;;;;;;17.26;55.62;100956.41;5112395;28;20023;-28
2022/07/27 03:27:27;;;;;;;1.73;1.40;;;;;;;17.25;55.45;100957.34;5112070;28;20103;-28
2022/07/27 03:29:53;;;;;;;3.75;1.45;;;;;;;17.25;55.62;100957.34;5094000;28;20482;-28
2022/07/27 03:32:18;;;;;;;3.20;1.40;;;;;;;17.24;55.63;100950.25;5112497;28;20031;-28
2022/07/27 03:34:44;;;;;;;2.08;1.50;;;;;;;17.23;55.81;100951.19;5111804;28;20084;-28
2022/07/27 03:37:09;;;;;;;1.85;1.40;;;;;;;17.24;55.72;100950.25;5093783;28;20024;-28
2022/07/27 03:39:35;;;;;;;3.40;1.80;;;;;;;17.24;55.48;100952.91;5094231;28;20030;-28
2022/07/27 03:42:00;;;;;;;3.63;1.40;;;;;;;17.24;55.58;100957.41;5112128;28;20472;-28
2022/07/27 03:44:25;;;;;;;3.50;1.85;;;;;;;17.23;55.54;100963.63;5093310;28;20020;-28
2022/07/27 03:46:51;;;;;;;3.72;1.70;;;;;;;17.21;55.37;100958.38;5112019;28;20023;-28
2022/07/27 03:49:16;;;;;;;2.55;1.35;;;;;;;17.19;55.41;100952.22;5093642;28;20022;-28
2022/07/27 03:51:42;;;;;;;1.55;1.38;;;;;;;17.18;55.42;100956.66;5112011;28;20023;-28
2022/07/27 03:54:08;;;;;;;1.42;1.33;;;;;;;17.17;55.52;100948.69;5093609;28;20020;-28
2022/07/27 03:56:33;;;;;;;1.98;1.40;;;;;;;17.16;55.37;100957.63;5106820;28;20024;-28
2022/07/27 03:58:59;;;;;;;4.13;2.15;;;;;;;17.17;55.32;100965.56;5073383;28;20028;-28
2022/07/27 04:01:24;;;;;;;2.42;1.40;;;;;;;17.16;55.39;100962.97;5092676;28;20027;-28
2022/07/27 04:03:50;;;;;;;7.20;1.85;;;;;;;17.14;55.46;100965.66;5077527;28;20028;-28
2022/07/27 04:06:15;;;;;;;6.60;2.03;;;;;;;17.14;55.57;100964.81;5095609;28;20084;-28
2022/07/27 04:08:40;;;;;;;2.95;1.40;;;;;;;17.13;55.61;100963.94;5095714;28;20031;-28
2022/07/27 04:11:06;;;;;;;7.10;1.70;;;;;;;17.14;55.70;100964.81;5095424;28;20051;-27
2022/07/27 04:13:31;;;;;;;2.38;1.30;;;;;;;17.13;55.61;100961.28;5095030;28;20058;-28
2022/07/27 04:15:56;;;;;;;3.22;1.48;;;;;;;17.12;55.48;100963.97;5095591;28;20035;-28
2022/07/27 04:18:22;;;;;;;3.05;1.60;;;;;;;17.11;55.53;100959.59;5095269;28;20028;-28
2022/07/27 04:20:47;;;;;;;1.65;1.13;;;;;;;17.11;55.41;100965.75;5095731;28;20553;-28
2022/07/27 04:23:13;;;;;;;3.08;1.50;;;;;;;17.10;55.53;100957.84;5095099;28;20020;-28
2022/07/27 04:25:38;;;;;;;2.40;1.10;;;;;;;17.10;55.53;100969.34;5095280;28;20048;-28
2022/07/27 04:28:04;;;;;;;5.75;1.90;;;;;;;17.09;55.43;100964.06;5094812;28;20039;-28
2022/07/27 04:30:29;;;;;;;2.72;1.38;;;;;;;17.09;55.57;100969.41;5076991;28;20069;-28
2022/07/27 04:32:54;;;;;;;2.10;1.15;;;;;;;17.09;55.74;100966.75;5095244;28;20563;-28
2022/07/27 04:35:20;;;;;;;2.55;1.10;;;;;;;17.08;55.74;100975.66;5095359;28;20063;-28
2022/07/27 04:37:45;;;;;;;2.67;1.60;;;;;;;17.08;55.65;100971.22;5109988;28;20027;-28
2022/07/27 04:40:11;;;;;;;1.88;1.05;;;;;;;17.09;55.60;100980.94;5097134;28;20027;-28
2022/07/27 04:42:36;;;;;;;1.80;1.13;;;;;;;17.08;55.62;100975.66;5114858;28;20024;-27
2022/07/27 04:45:02;;;;;;;1.55;1.02;;;;;;;17.07;55.64;100979.25;5115519;28;20024;-28
2022/07/27 04:47:28;;;;;;;7.25;1.42;;;;;;;17.05;55.46;100985.47;5115210;28;20031;-28
2022/07/27 04:49:54;;;;;;;3.55;1.10;;;;;;;17.05;55.50;100990.81;5115030;28;20027;-28
2022/07/27 04:52:19;;;;;;;2.30;1.40;;;;;;;17.05;55.67;100988.16;5097019;28;20111;-28
2022/07/27 04:54:44;;;;;;;3.00;1.00;;;;;;;17.08;55.57;100996.97;5115025;28;20023;-28
2022/07/27 04:57:10;;;;;;;5.53;1.92;;;;;;;17.05;55.63;100988.16;5114731;28;20080;-28
2022/07/27 04:59:35;;;;;;;2.38;1.27;;;;;;;17.04;55.60;100986.38;5096697;28;20023;-28
2022/07/27 05:02:01;;;;;;;2.50;1.00;;;;;;;17.05;55.65;100993.47;5115149;28;20023;-28
2022/07/27 05:04:26;;;;;;;2.92;1.23;;;;;;;17.08;55.46;100996.97;5079353;28;20489;-28
2022/07/27 05:06:51;;;;;;;2.15;0.90;;;;;;;17.08;55.58;101003.19;5115336;28;20140;-28
2022/07/27 05:09:17;;;;;;;2.13;1.10;;;;;;;17.07;55.60;101005.91;5096832;28;20028;-28
2022/07/27 05:11:42;;;;;;;2.50;1.13;;;;;;;17.08;55.46;101002.31;5114424;28;20020;-27
2022/07/27 05:14:07;;;;;;;1.48;0.90;;;;;;;17.07;55.71;101006.75;5113977;28;20126;-28
2022/07/27 05:16:33;;;;;;;2.67;1.10;;;;;;;17.07;55.53;101008.56;5114694;28;20047;-28
2022/07/27 05:18:58;;;;;;;4.53;1.40;;;;;;;17.07;55.57;101005.91;5114517;28;20023;-28
2022/07/27 05:21:24;;;;;;;1.77;1.30;;;;;;;17.08;55.72;101007.63;5114620;28;20024;-28
2022/07/27 05:23:49;;;;;;;2.22;1.10;;;;;;;17.08;55.64;101007.63;5114363;28;20028;-28
2022/07/27 05:26:15;;;;;;;2.33;1.13;;;;;;;17.08;55.54;101013.84;5113960;28;20030;-28
2022/07/27 05:28:40;;;;;;;2.70;1.10;;;;;;;17.11;55.40;101013.72;5114446;28;20030;-28
2022/07/27 05:31:05;;;;;;;3.90;1.17;;;;;;;17.13;55.36;101008.34;5114510;28;20030;-28
2022/07/27 05:33:31;;;;;;;1.85;1.23;;;;;;;17.13;55.42;101011.91;5114284;28;20026;-28
2022/07/27 05:35:56;;;;;;;3.72;0.90;;;;;;;17.14;55.49;101018.13;5114431;28;20047;-28
2022/07/27 05:38:22;;;;;;;2.42;1.23;;;;;;;17.16;55.67;101022.47;5114432;28;20027;-28
2022/07/27 05:40:47;;;;;;;3.00;0.90;;;;;;;17.17;55.39;101015.31;5113938;28;20039;-28
2022/07/27 05:43:12;;;;;;;2.33;1.08;;;;;;;17.18;55.66;101025.09;5114012;28;20037;-28
2022/07/27 05:45:38;;;;;;;2.58;1.15;;;;;;;17.20;55.38;101022.38;5114053;28;20080;-28
2022/07/27 05:48:03;;;;;;;4.50;1.85;;;;;;;17.20;55.57;101030.38;5114044;28;20023;-28
2022/07/27 05:50:29;;;;;;;1.70;1.23;;;;;;;17.22;55.52;101026.75;5114315;28;20102;-28
2022/07/27 05:52:56;;;;;;;2.00;1.33;;;;;;;17.22;55.66;101032.06;5095546;28;20024;-28
2022/07/27 05:55:21;;;;;;;1.77;1.13;;;;;;;17.24;55.45;101038.22;5114089;28;20024;-28
2022/07/27 05:57:47;;;;;;;1.77;0.90;;;;;;;17.27;55.41;101034.59;5113767;28;20031;-28
2022/07/27 06:00:12;;;;;;;4.72;0.90;;;;;;;17.27;55.42;101040.78;5113938;28;20075;-28
2022/07/27 06:02:38;;;;;;;4.47;1.20;;;;;;;17.28;55.19;101037.19;5113464;28;20397;-27
2022/07/27 06:05:04;;;;;;;3.33;0.80;;;;;;;17.30;55.38;101038.03;5113905;28;20479;-28
2022/07/27 06:10:13;;;;;;;1.02;0.90;;;;;;;17.34;55.56;101043.28;5113692;28;20072;-28
2022/07/27 06:12:40;;;;;;;1.08;0.95;;;;;;;17.35;55.26;101045.00;5113522;28;20428;-28
2022/07/27 06:15:07;;;;;;;4.65;1.75;;;;;;;17.35;55.51;101048.56;5113714;28;20368;-28
2022/07/27 06:17:32;;;;;;;2.13;1.02;;;;;;;17.38;55.25;101047.56;5113012;28;20024;-28
2022/07/27 06:19:57;;;;;;;2.72;1.50;;;;;;;17.39;55.42;101054.66;5113579;28;20042;-28
2022/07/27 06:22:22;;;;;;;2.33;0.98;;;;;;;17.41;55.21;101060.81;5113328;28;20027;-28
2022/07/27 06:24:48;;;;;;;2.45;1.08;;;;;;;17.43;55.15;101050.97;5111915;28;20104;-28
2022/07/27 06:27:13;;;;;;;3.83;1.40;;;;;;;17.44;55.13;101050.06;5078029;28;20475;-28
2022/07/27 06:29:39;;;;;;;0.80;0.80;;;;;;;17.46;55.12;101058.88;5094943;28;20475;-28
2022/07/27 06:32:05;;;;;;;2.78;0.80;;;;;;;17.50;55.14;101057.00;5110742;28;20027;-28
2022/07/27 06:34:31;;;;;;;0.73;0.70;;;;;;;17.53;55.16;101071.09;5107010;28;20103;-28
2022/07/27 06:36:58;;;;;;;2.67;0.95;;;;;;;17.55;55.09;101066.56;5100605;28;20142;-28
2022/07/27 06:39:24;;;;;;;1.38;0.77;;;;;;;17.56;54.87;101071.00;5077940;28;20023;-28
2022/07/27 06:41:49;;;;;;;2.00;1.63;;;;;;;17.58;54.87;101060.28;5112694;28;20364;-28
2022/07/27 06:44:15;;;;;;;2.05;0.90;;;;;;;17.61;54.91;101065.47;5112555;28;20107;-28
2022/07/27 06:46:40;;;;;;;2.08;0.95;;;;;;;17.66;54.95;101070.69;5112705;28;20024;-28
2022/07/27 06:49:05;;;;;;;2.50;0.90;;;;;;;17.68;54.84;101074.19;5112705;28;20031;-28
2022/07/27 06:51:31;;;;;;;2.70;1.08;;;;;;;17.70;54.86;101069.66;5112985;28;20022;-28
2022/07/27 06:53:56;;;;;;;2.08;0.85;;;;;;;17.74;54.84;101070.44;5094097;28;20024;-28
2022/07/27 06:56:22;;;;;;;2.38;1.00;;;;;;;17.77;54.67;101071.19;5112735;28;20028;-28
2022/07/27 06:58:48;;;;;;;1.92;1.00;;;;;;;17.79;54.74;101069.38;5112563;28;20292;-28
2022/07/27 07:01:13;;;;;;;2.30;0.80;;;;;;;17.82;54.67;101066.59;5112610;28;20047;-28
2022/07/27 07:03:39;;;;;;;5.75;1.63;;;;;;;17.86;54.58;101069.16;5112214;28;20080;-28
2022/07/27 07:06:04;;;;;;;2.47;1.20;;;;;;;17.89;54.53;101074.38;5112303;28;20062;-28
2022/07/27 07:08:29;;;;;;;1.83;0.90;;;;;;;17.93;54.61;101073.34;5112316;28;20088;-28
2022/07/27 07:10:55;;;;;;;2.65;1.02;;;;;;;17.97;54.66;101077.66;5112425;28;20019;-28
2022/07/27 07:13:21;;;;;;;1.17;0.82;;;;;;;18.00;55.02;101077.56;5111998;28;20119;-28
2022/07/27 07:15:46;;;;;;;2.13;1.00;;;;;;;18.03;54.73;101072.13;5112286;28;20435;-28
2022/07/27 07:18:12;;;;;;;2.85;1.35;;;;;;;18.08;54.87;101080.84;5112101;28;20031;-28
2022/07/27 07:20:38;;;;;;;1.17;0.80;;;;;;;18.11;54.93;101079.03;5112082;28;20026;-28
2022/07/27 07:23:04;;;;;;;2.00;0.70;;;;;;;18.16;55.16;101080.63;5111847;28;20394;-28
2022/07/27 07:25:30;;;;;;;2.42;0.98;;;;;;;18.20;54.59;101073.34;5093805;28;20015;-28
2022/07/27 07:27:55;;;;;;;0.70;0.70;;;;;;;18.24;54.51;101079.47;5093826;28;20079;-28
2022/07/27 07:30:21;;;;;;;1.77;1.00;;;;;;;18.28;54.82;101079.28;5093866;28;20035;-28
2022/07/27 07:32:47;;;;;;;2.83;0.93;;;;;;;18.33;54.81;101085.38;5111895;28;20045;-28
2022/07/27 07:35:12;;;;;;;5.97;1.30;;;;;;;18.39;55.10;101080.72;5093699;28;20479;-28
2022/07/27 07:37:38;;;;;;;3.90;1.38;;;;;;;18.43;54.68;101079.69;5111057;28;20130;-28
2022/07/27 07:40:05;;;;;;;2.80;0.90;;;;;;;18.52;55.08;101082.03;5111821;28;20031;-28
2022/07/27 07:42:30;;;;;;;1.48;0.75;;;;;;;18.61;54.83;101082.63;5093654;28;20020;-28
2022/07/27 07:44:55;;;;;;;2.80;1.40;;;;;;;18.67;54.81;101071.72;5093668;28;20031;-28
2022/07/27 07:47:21;;;;;;;1.48;0.90;;;;;;;18.74;54.36;101083.91;5111623;28;20027;-28
2022/07/27 07:49:46;;;;;;;2.00;0.85;;;;;;;18.84;55.35;101074.63;5111915;28;20635;-28
2022/07/27 07:52:12;;;;;;;1.95;1.17;;;;;;;18.92;55.03;101077.03;5112093;28;20020;-28
2022/07/27 07:54:37;;;;;;;2.13;0.90;;;;;;;19.00;54.76;101068.69;5111554;28;20110;-28
2022/07/27 07:57:02;;;;;;;1.48;0.75;;;;;;;19.08;55.72;101074.66;5111501;28;20100;-28
2022/07/27 07:59:28;;;;;;;2.35;1.27;;;;;;;19.17;55.32;101076.09;5112089;28;20031;-28
2022/07/27 08:01:53;;;;;;;1.70;1.00;;;;;;;19.25;55.51;101078.50;5111746;28;20045;-28
2022/07/27 08:04:18;;;;;;;2.88;1.42;;;;;;;19.32;54.82;101079.13;5111469;28;20061;-28
2022/07/27 08:06:44;;;;;;;1.95;0.90;;;;;;;19.40;55.57;101060.94;5111583;28;20042;-28
2022/07/27 08:09:11;;;;;;;1.80;1.00;;;;;;;19.51;56.15;101063.22;5111744;28;20036;-28
2022/07/27 08:11:37;;;;;;;2.20;1.00;;;;;;;19.57;54.54;101068.28;5112075;28;20019;-28
2022/07/27 08:14:02;;;;;;;2.55;1.10;;;;;;;19.66;55.52;101077.75;5111458;28;20023;-28
2022/07/27 08:16:28;;;;;;;3.00;1.40;;;;;;;19.73;54.70;101078.38;5093364;28;20023;-28
2022/07/27 08:18:53;;;;;;;1.50;0.82;;;;;;;19.80;54.63;101084.31;5111387;28;20031;-28
2022/07/27 08:21:19;;;;;;;2.33;1.25;;;;;;;19.86;55.20;101079.59;5111480;28;20031;-28
2022/07/27 08:23:44;;;;;;;5.47;1.40;;;;;;;19.96;53.91;101084.56;5111257;28;20031;-28
2022/07/27 08:26:09;;;;;;;1.55;1.08;;;;;;;20.04;54.55;101078.94;5111731;28;20096;-28
2022/07/27 08:28:35;;;;;;;1.90;1.05;;;;;;;20.09;54.51;101084.94;5111588;28;20054;-28
2022/07/27 08:31:00;;;;;;;1.45;0.98;;;;;;;20.15;54.14;101086.50;5111493;28;20051;-28
2022/07/27 08:33:25;;;;;;;1.92;0.88;;;;;;;20.19;51.77;101088.09;5111389;28;20023;-28
2022/07/27 08:35:51;;;;;;;1.00;0.70;;;;;;;20.22;53.19;101096.88;5111281;28;20530;-28
2022/07/27 08:38:17;;;;;;;0.70;0.70;;;;;;;20.29;53.38;101092.13;5111203;28;20077;-28
2022/07/27 08:40:42;;;;;;;1.02;0.90;;;;;;;20.35;53.35;101090.97;5111691;28;20474;-28
2022/07/27 08:43:08;;;;;;;1.88;1.25;;;;;;;20.42;53.15;101089.78;5111214;28;20498;-28
2022/07/27 08:45:34;;;;;;;2.88;1.45;;;;;;;20.48;53.29;101097.53;5111096;28;20364;-28
2022/07/27 08:48:00;;;;;;;1.25;0.82;;;;;;;20.57;52.65;101092.72;5111603;28;20073;-28
2022/07/27 08:50:29;;;;;;;2.53;1.15;;;;;;;20.64;52.05;101091.47;5096704;28;20047;-28
2022/07/27 08:52:54;;;;;;;3.38;0.93;;;;;;;20.71;52.28;101092.94;5114938;28;20047;-28
2022/07/27 08:55:20;;;;;;;3.30;1.23;;;;;;;20.80;51.87;101085.44;5115082;28;20482;-28
2022/07/27 08:57:45;;;;;;;4.03;1.00;;;;;;;20.89;51.71;101079.69;5096498;28;20023;-28
2022/07/27 09:00:11;;;;;;;3.63;1.02;;;;;;;20.95;51.17;101091.94;5114856;28;20072;-28
2022/07/27 09:02:39;;;;;;;3.25;1.10;;;;;;;21.02;50.75;101085.34;5096027;28;20080;-28
2022/07/27 09:05:05;;;;;;;2.00;0.60;;;;;;;21.10;51.34;101090.34;5114865;28;20043;-28
2022/07/27 09:07:31;;;;;;;1.38;0.80;;;;;;;21.15;49.61;101082.97;5114450;28;20029;-28
2022/07/27 09:09:56;;;;;;;1.02;0.88;;;;;;;21.25;50.62;101086.97;5115001;28;20024;-28
2022/07/27 09:12:28;;;;;;;0.75;0.68;;;;;;;21.31;50.00;101090.28;5114624;28;20058;-28
2022/07/27 09:15:03;;;;;;;1.73;0.80;;;;;;;21.39;50.78;101078.25;5114380;28;20016;-28
2022/07/27 09:17:28;;;;;;;1.70;0.88;;;;;;;21.45;50.02;101085.13;5113932;28;20031;-28
2022/07/27 09:19:56;;;;;;;1.85;1.30;;;;;;;21.55;50.09;101074.81;5115093;28;20106;-28
2022/07/27 09:22:51;;;;;;;2.58;1.00;;;;;;;21.63;49.27;101080.66;5114157;28;20047;-28
2022/07/27 09:25:18;;;;;;;3.40;0.88;;;;;;;21.69;49.22;101074.13;5115090;28;20035;-28
2022/07/27 09:27:48;;;;;;;1.70;1.00;;;;;;;21.76;48.98;101072.03;5114290;28;20497;-28
2022/07/27 09:30:15;;;;;;;1.85;1.00;;;;;;;21.80;48.92;101070.91;5096480;28;20031;-28
2022/07/27 09:33:01;;;;;;;2.33;1.13;;;;;;;21.84;48.42;101071.66;5095536;28;20019;-28
2022/07/27 09:35:29;;;;;;;2.15;1.05;;;;;;;21.83;47.92;101076.13;5096287;28;20039;-28
2022/07/27 09:37:56;;;;;;;2.47;0.82;;;;;;;21.86;49.06;101076.00;5113922;28;20063;-28
2022/07/27 09:40:22;;;;;;;1.52;0.80;;;;;;;21.89;48.62;101070.47;5114657;28;20051;-28
2022/07/27 09:43:07;;;;;;;1.45;0.70;;;;;;;21.91;48.16;101065.88;5113828;28;20031;-28
2022/07/27 09:45:34;;;;;;;0.90;0.90;;;;;;;21.94;48.32;101055.94;5114114;28;20027;-28
2022/07/27 09:48:17;;;;;;;1.45;0.77;;;;;;;21.97;48.85;101062.00;5114203;28;20058;-28
2022/07/27 09:51:00;;;;;;;4.10;1.10;;;;;;;21.99;48.49;101054.75;5113942;28;20068;-28
2022/07/27 09:53:28;;;;;;;1.02;0.80;;;;;;;22.02;48.95;101054.59;5113996;28;20023;-28
2022/07/27 09:55:59;;;;;;;2.05;0.90;;;;;;;22.04;48.61;101057.22;5114052;28;20027;-28
2022/07/27 09:58:48;;;;;;;2.17;1.15;;;;;;;22.10;48.58;101067.63;5113624;28;20026;-28
2022/07/27 10:01:21;;;;;;;1.83;0.90;;;;;;;22.14;48.23;101061.13;5113456;28;20077;-28
2022/07/27 10:03:48;;;;;;;2.00;0.98;;;;;;;22.21;48.11;101063.50;5113736;28;20024;-28
2022/07/27 10:06:14;;;;;;;2.28;0.90;;;;;;;22.22;47.71;101076.88;5113891;28;20027;-28
2022/07/27 10:08:42;;;;;;;4.03;0.82;;;;;;;22.27;48.15;101073.91;5095494;28;20031;-28
2022/07/27 10:11:08;;;;;;;0.93;0.77;;;;;;;22.35;47.89;101076.22;5113933;28;20039;-28
2022/07/27 10:13:34;;;;;;;2.17;0.73;;;;;;;22.35;47.37;101079.78;5113353;28;20096;-28
2022/07/27 10:16:01;;;;;;;2.13;0.77;;;;;;;22.36;47.79;101076.13;5113179;28;20486;-28
2022/07/27 10:18:51;;;;;;;5.18;1.35;;;;;;;22.38;47.34;101081.44;5113343;28;20429;-28
2022/07/27 10:21:16;;;;;;;2.10;1.00;;;;;;;22.46;47.71;101078.31;5113514;28;20070;-28
2022/07/27 10:23:53;;;;;;;1.90;0.73;;;;;;;22.53;47.39;101086.00;5113054;28;20487;-28
2022/07/27 10:26:24;;;;;;;3.35;1.38;;;;;;;22.55;46.44;101080.53;5098394;28;20028;-28
2022/07/27 10:28:53;;;;;;;1.70;0.85;;;;;;;22.54;46.65;101076.13;5113426;28;20077;-28
2022/07/27 10:31:21;;;;;;;4.95;1.50;;;;;;;22.58;46.70;101077.72;5112260;28;20060;-28
2022/07/27 10:33:52;;;;;;;2.03;1.17;;;;;;;22.63;46.96;101081.03;5112461;28;20018;-28
2022/07/27 10:36:47;;;;;;;2.05;1.25;;;;;;;22.70;46.76;101080.72;5113054;28;20272;-28
2022/07/27 10:39:34;;;;;;;3.13;1.10;;;;;;;22.80;46.35;101068.47;5102270;28;20118;-28
2022/07/27 10:42:19;;;;;;;3.00;1.13;;;;;;;22.86;45.83;101078.03;5113161;28;20028;-28
2022/07/27 10:44:58;;;;;;;1.60;1.00;;;;;;;22.84;44.82;101072.72;5112728;28;20451;-28
2022/07/27 10:47:35;;;;;;;1.98;0.80;;;;;;;22.87;45.14;101074.41;5112682;28;20051;-28
2022/07/27 10:50:15;;;;;;;2.97;1.30;;;;;;;22.87;46.32;101067.19;5094627;28;20444;-28
2022/07/27 10:52:43;;;;;;;1.00;0.60;;;;;;;22.91;47.06;101078.66;5112806;28;20050;-28
2022/07/27 10:55:30;;;;;;;2.15;0.98;;;;;;;22.93;46.76;101072.25;5094477;28;20055;-28
2022/07/27 10:58:13;;;;;;;1.60;0.60;;;;;;;22.93;46.15;101074.06;5112721;28;20019;-28
2022/07/27 11:00:48;;;;;;;2.67;0.90;;;;;;;22.98;46.64;101076.50;5112374;28;20418;-28
2022/07/27 11:03:24;;;;;;;1.50;1.35;;;;;;;23.01;46.71;101058.34;5112448;28;20099;-28
2022/07/27 11:06:20;;;;;;;3.55;0.82;;;;;;;23.06;45.72;101061.69;5094292;28;20434;-28
2022/07/27 11:08:47;;;;;;;2.53;1.30;;;;;;;23.16;45.84;101067.41;5112441;28;20115;-28
2022/07/27 11:11:19;;;;;;;3.03;1.23;;;;;;;23.22;45.14;101060.81;5093726;28;20032;-28
2022/07/27 11:13:45;;;;;;;1.13;0.90;;;;;;;23.30;46.30;101046.91;5093921;28;20015;-28
2022/07/27 11:16:14;;;;;;;2.45;1.15;;;;;;;23.38;44.65;101047.38;5112561;28;20023;-28
2022/07/27 11:18:41;;;;;;;3.55;1.20;;;;;;;23.56;44.22;101048.13;5112236;28;20039;-28
2022/07/27 11:21:21;;;;;;;4.15;0.90;;;;;;;23.58;44.15;101048.06;5112237;28;20024;-27
2022/07/27 11:23:49;;;;;;;1.35;1.02;;;;;;;23.60;44.66;101053.34;5112240;28;20027;-28
2022/07/27 11:26:14;;;;;;;1.95;1.42;;;;;;;23.63;44.17;101054.03;5112142;28;20034;-28
2022/07/27 11:28:40;;;;;;;2.85;1.30;;;;;;;23.71;44.01;101050.88;5112053;28;20020;-28